Time;durP1;ratioP1;P1;durP2;ratioP2;P2;SDS_P1;SDS_P2;PMS_P1;PMS_P2;Temp;Humidity;BMP_temperature;BMP_pressure;BME280_temperature;BME280_humidity;BME280_pressure;Samples;Min_cycle;Max_cycle;Signal;HPM_P1;HPM_P2
2022/10/30 00:00:57;;;;;;;8.60;4.10;;;17.00;99.90;;;;;;5034676;28;20472;-83
2022/10/30 00:03:23;;;;;;;9.73;5.20;;;16.90;99.90;;;;;;5034878;28;20974;-83
2022/10/30 00:05:51;;;;;;;8.93;4.93;;;16.90;99.90;;;;;;5034954;28;20446;-84
2022/10/30 00:08:20;;;;;;;8.50;4.10;;;16.90;99.90;;;;;;5037649;28;20463;-83
2022/10/30 00:10:50;;;;;;;9.93;4.40;;;16.90;99.90;;;;;;5054565;28;20478;-82
2022/10/30 00:13:17;;;;;;;7.07;4.30;;;16.90;99.90;;;;;;5054482;28;20478;-83
2022/10/30 00:15:47;;;;;;;8.40;4.73;;;16.90;99.90;;;;;;5054693;28;20448;-81
2022/10/30 00:18:14;;;;;;;6.60;4.00;;;16.80;99.90;;;;;;5054341;28;20461;-83
2022/10/30 00:20:41;;;;;;;6.53;3.93;;;16.90;99.90;;;;;;5055182;28;20499;-83
2022/10/30 00:23:07;;;;;;;11.00;4.30;;;16.90;99.90;;;;;;5054474;28;20454;-83
2022/10/30 00:25:35;;;;;;;6.80;4.10;;;16.90;99.90;;;;;;5033316;28;20458;-84
2022/10/30 00:28:04;;;;;;;5.63;4.40;;;16.90;99.90;;;;;;5033057;28;20478;-84
2022/10/30 00:30:30;;;;;;;8.43;3.93;;;16.90;99.90;;;;;;5027030;28;21019;-83
2022/10/30 00:32:57;;;;;;;9.60;4.30;;;16.80;99.90;;;;;;5033626;28;20511;-83
2022/10/30 00:35:24;;;;;;;8.97;3.97;;;16.80;99.90;;;;;;5040564;28;20532;-83
2022/10/30 00:37:51;;;;;;;6.27;3.97;;;16.80;99.90;;;;;;5033375;28;20551;-84
2022/10/30 00:40:18;;;;;;;7.87;4.07;;;16.80;99.90;;;;;;5034149;28;20488;-83
2022/10/30 00:42:45;;;;;;;7.40;4.60;;;16.80;99.90;;;;;;5035179;28;20824;-82
2022/10/30 00:45:15;;;;;;;8.03;4.47;;;16.80;99.90;;;;;;5034301;28;20482;-83
2022/10/30 00:47:45;;;;;;;6.30;4.13;;;16.80;99.90;;;;;;5040246;28;20449;-84
2022/10/30 00:50:15;;;;;;;10.90;4.50;;;16.80;99.90;;;;;;5034205;28;20446;-84
2022/10/30 00:52:46;;;;;;;7.17;4.07;;;16.80;99.90;;;;;;5034577;28;20944;-82
2022/10/30 00:55:17;;;;;;;13.87;4.70;;;16.80;99.90;;;;;;5051231;28;20452;-84
2022/10/30 00:57:44;;;;;;;6.10;3.67;;;16.70;99.90;;;;;;5034121;28;20462;-83
2022/10/30 01:00:14;;;;;;;10.27;4.00;;;16.70;99.90;;;;;;5033065;28;20574;-83
2022/10/30 01:02:43;;;;;;;7.03;3.67;;;16.70;99.90;;;;;;5034235;28;20838;-84
2022/10/30 01:05:11;;;;;;;6.63;3.87;;;16.70;99.90;;;;;;5033859;28;20464;-84
2022/10/30 01:07:38;;;;;;;5.77;4.00;;;16.70;99.90;;;;;;5036050;28;20518;-84
2022/10/30 01:10:06;;;;;;;8.50;4.70;;;16.70;99.90;;;;;;5037315;28;20475;-84
2022/10/30 01:12:32;;;;;;;8.17;4.30;;;16.70;99.90;;;;;;5037670;28;20476;-84
2022/10/30 01:15:01;;;;;;;8.30;4.43;;;16.70;99.90;;;;;;5038175;28;20456;-84
2022/10/30 01:17:58;;;;;;;8.47;4.67;;;16.60;99.90;;;;;;5030430;28;20457;-82
2022/10/30 01:20:42;;;;;;;6.13;3.83;;;16.60;99.90;;;;;;5037664;28;20484;-84
2022/10/30 01:23:21;;;;;;;7.50;4.50;;;16.60;99.90;;;;;;5039037;28;20452;-84
2022/10/30 01:25:56;;;;;;;7.77;4.40;;;16.60;99.90;;;;;;5037239;28;20454;-83
2022/10/30 01:28:35;;;;;;;6.03;4.30;;;16.50;99.90;;;;;;5036907;28;20444;-83
2022/10/30 01:31:16;;;;;;;6.17;4.13;;;16.50;99.90;;;;;;5037833;28;20480;-82
2022/10/30 01:33:59;;;;;;;8.50;3.93;;;16.50;99.90;;;;;;5038718;28;20444;-82
2022/10/30 01:36:30;;;;;;;7.30;3.50;;;16.40;99.90;;;;;;5041377;28;20442;-83
2022/10/30 01:39:01;;;;;;;5.90;3.80;;;16.40;99.90;;;;;;5035058;28;20526;-82
2022/10/30 01:41:28;;;;;;;6.00;4.20;;;16.40;99.90;;;;;;5021026;28;20473;-82
2022/10/30 01:44:00;;;;;;;7.47;4.10;;;16.40;99.90;;;;;;5037434;28;20445;-81
2022/10/30 01:46:41;;;;;;;8.10;4.10;;;16.40;99.90;;;;;;5037878;28;20458;-83
2022/10/30 01:49:27;;;;;;;8.83;4.17;;;16.30;99.90;;;;;;5041853;28;20454;-81
2022/10/30 01:52:02;;;;;;;6.10;4.23;;;16.30;99.90;;;;;;5049555;28;20476;-82
2022/10/30 01:54:37;;;;;;;11.33;4.20;;;16.30;99.90;;;;;;5037427;28;20826;-83
2022/10/30 01:57:11;;;;;;;9.07;3.80;;;16.30;99.90;;;;;;5037398;28;20483;-83
2022/10/30 01:59:41;;;;;;;9.40;3.57;;;16.20;99.90;;;;;;5037598;28;20487;-82
2022/10/30 02:02:09;;;;;;;7.23;4.33;;;16.20;99.90;;;;;;5051233;28;20476;-83
2022/10/30 02:04:38;;;;;;;9.10;4.80;;;16.20;99.90;;;;;;5059702;28;20465;-83
2022/10/30 02:07:05;;;;;;;5.83;3.90;;;16.10;99.90;;;;;;5071880;28;20459;-84
2022/10/30 02:09:32;;;;;;;9.10;3.67;;;16.10;99.90;;;;;;5058850;28;20840;-82
2022/10/30 02:12:00;;;;;;;8.30;4.13;;;16.10;99.90;;;;;;5057851;28;20482;-83
2022/10/30 02:14:31;;;;;;;8.57;4.27;;;16.10;99.90;;;;;;5058547;28;20455;-84
2022/10/30 02:17:00;;;;;;;7.37;4.20;;;16.10;99.90;;;;;;5057578;28;20443;-83
2022/10/30 02:19:27;;;;;;;9.37;4.67;;;16.10;99.90;;;;;;5056759;28;20563;-81
2022/10/30 02:21:55;;;;;;;7.17;4.33;;;16.00;99.90;;;;;;5055862;28;20486;-82
2022/10/30 02:24:22;;;;;;;8.13;4.27;;;16.00;99.90;;;;;;5058065;28;20452;-83
2022/10/30 02:26:48;;;;;;;8.10;5.00;;;16.00;99.90;;;;;;5058015;28;20459;-83
2022/10/30 02:29:19;;;;;;;13.03;4.87;;;16.00;99.90;;;;;;5053864;28;20447;-84
2022/10/30 02:31:46;;;;;;;7.23;4.70;;;16.00;99.90;;;;;;5058194;28;20498;-82
2022/10/30 02:34:13;;;;;;;10.30;4.80;;;15.90;99.90;;;;;;5058954;28;20462;-85
2022/10/30 02:36:40;;;;;;;12.53;5.33;;;15.90;99.90;;;;;;5057068;28;20452;-84
2022/10/30 02:39:08;;;;;;;9.80;4.93;;;15.90;99.90;;;;;;5056729;28;20545;-82
2022/10/30 02:41:35;;;;;;;11.83;5.27;;;15.90;99.90;;;;;;5057725;28;20494;-83
2022/10/30 02:44:02;;;;;;;14.63;5.50;;;15.80;99.90;;;;;;5055577;28;20896;-84
2022/10/30 02:46:29;;;;;;;11.20;4.47;;;15.80;99.90;;;;;;5057449;28;20446;-83
2022/10/30 02:48:56;;;;;;;7.73;4.60;;;15.80;99.90;;;;;;5057343;28;20443;-82
2022/10/30 02:51:22;;;;;;;7.13;4.70;;;15.80;99.90;;;;;;5057194;28;21005;-84
2022/10/30 02:53:49;;;;;;;7.50;4.40;;;15.80;99.90;;;;;;5056036;28;20825;-82
2022/10/30 02:56:18;;;;;;;8.30;4.50;;;15.70;99.90;;;;;;5058115;28;20471;-82
2022/10/30 02:58:45;;;;;;;11.83;4.37;;;15.70;99.90;;;;;;5057109;28;20952;-84
2022/10/30 03:01:13;;;;;;;6.00;4.03;;;15.70;99.90;;;;;;5057572;28;20495;-82
2022/10/30 03:03:41;;;;;;;6.20;4.30;;;15.70;99.90;;;;;;5054693;28;20482;-83
2022/10/30 03:06:10;;;;;;;7.30;4.33;;;15.60;99.90;;;;;;5057810;28;20960;-83
2022/10/30 03:08:37;;;;;;;10.10;4.87;;;15.60;99.90;;;;;;5055278;28;20456;-83
2022/10/30 03:11:07;;;;;;;9.63;4.93;;;15.60;99.90;;;;;;5037870;28;20483;-82
2022/10/30 03:13:36;;;;;;;8.10;4.10;;;15.60;99.90;;;;;;5036716;28;20453;-84
2022/10/30 03:16:05;;;;;;;8.33;4.77;;;15.60;99.90;;;;;;5036867;28;20800;-83
2022/10/30 03:18:33;;;;;;;11.47;4.20;;;15.50;99.90;;;;;;5036375;28;20457;-83
2022/10/30 03:21:02;;;;;;;7.67;4.10;;;15.60;99.90;;;;;;5036687;28;20499;-83
2022/10/30 03:23:29;;;;;;;9.07;4.37;;;15.60;99.90;;;;;;5036939;28;20448;-82
2022/10/30 03:25:57;;;;;;;7.53;4.23;;;15.50;99.90;;;;;;5051304;28;20456;-82
2022/10/30 03:28:30;;;;;;;8.13;4.07;;;15.50;99.90;;;;;;5055791;28;20458;-83
2022/10/30 03:31:02;;;;;;;12.17;4.60;;;15.50;99.90;;;;;;5055769;28;21019;-82
2022/10/30 03:33:30;;;;;;;7.80;4.53;;;15.50;99.90;;;;;;5057459;28;20446;-83
2022/10/30 03:35:57;;;;;;;6.50;4.83;;;15.50;99.90;;;;;;5057088;28;20451;-83
2022/10/30 03:38:24;;;;;;;6.13;4.27;;;15.50;99.90;;;;;;5056654;28;20451;-82
2022/10/30 03:40:51;;;;;;;15.90;4.80;;;15.50;99.90;;;;;;5054517;28;20489;-83
2022/10/30 03:43:18;;;;;;;6.17;3.70;;;15.50;99.90;;;;;;5057547;28;20459;-83
2022/10/30 03:45:49;;;;;;;7.30;4.50;;;15.50;99.90;;;;;;5056168;28;20462;-83
2022/10/30 03:48:18;;;;;;;7.93;4.03;;;15.50;99.90;;;;;;5056601;28;20444;-82
2022/10/30 03:50:45;;;;;;;7.07;4.10;;;15.50;99.90;;;;;;5056168;28;20478;-84
2022/10/30 03:53:13;;;;;;;7.63;3.73;;;15.50;99.90;;;;;;5056499;28;20927;-83
2022/10/30 03:55:40;;;;;;;6.50;4.10;;;15.50;99.90;;;;;;5056442;28;20455;-83
2022/10/30 03:58:07;;;;;;;15.53;3.80;;;15.50;99.90;;;;;;5053834;28;20449;-83
2022/10/30 04:00:35;;;;;;;5.47;3.87;;;15.50;99.90;;;;;;5053280;28;20494;-83
2022/10/30 04:03:02;;;;;;;7.03;4.27;;;15.50;99.90;;;;;;5056322;28;20452;-84
2022/10/30 04:05:31;;;;;;;5.90;4.20;;;15.50;99.90;;;;;;5055807;28;20455;-83
2022/10/30 04:08:00;;;;;;;7.60;3.90;;;15.40;99.90;;;;;;5055385;28;20461;-83
2022/10/30 04:10:27;;;;;;;10.70;4.73;;;15.40;99.90;;;;;;5053872;28;20945;-81
2022/10/30 04:13:00;;;;;;;9.60;4.40;;;15.40;99.90;;;;;;5054597;28;20460;-82
2022/10/30 04:15:27;;;;;;;6.77;4.50;;;15.40;99.90;;;;;;5056323;28;20447;-83
2022/10/30 04:17:54;;;;;;;10.33;4.83;;;15.40;99.90;;;;;;5055593;28;20994;-82
2022/10/30 04:20:21;;;;;;;7.07;5.13;;;15.30;99.90;;;;;;5056251;28;20483;-82
2022/10/30 04:22:55;;;;;;;7.73;4.47;;;15.30;99.90;;;;;;5056303;28;20961;-82
2022/10/30 04:25:21;;;;;;;9.13;5.20;;;15.30;99.90;;;;;;5056342;28;20500;-82
2022/10/30 04:27:48;;;;;;;9.00;4.77;;;15.20;99.90;;;;;;5055493;28;20464;-82
2022/10/30 04:30:15;;;;;;;9.73;5.37;;;15.20;99.90;;;;;;5054169;28;20448;-82
2022/10/30 04:32:46;;;;;;;7.10;4.03;;;15.20;99.90;;;;;;5055581;28;20886;-82
2022/10/30 04:35:13;;;;;;;8.87;4.70;;;15.10;99.90;;;;;;5055695;28;20446;-85
2022/10/30 04:37:40;;;;;;;9.50;4.20;;;15.10;99.90;;;;;;5055098;28;20453;-83
2022/10/30 04:40:10;;;;;;;14.20;4.57;;;15.10;99.90;;;;;;5055174;28;20463;-83
2022/10/30 04:42:36;;;;;;;10.07;4.77;;;15.10;99.90;;;;;;5059149;28;20476;-83
2022/10/30 04:45:04;;;;;;;7.20;4.27;;;15.00;99.90;;;;;;5058158;28;20456;-83
2022/10/30 04:47:30;;;;;;;6.97;4.50;;;15.00;99.90;;;;;;5059327;28;20454;-83
2022/10/30 04:49:59;;;;;;;8.27;4.87;;;15.00;99.90;;;;;;5058638;28;20952;-82
2022/10/30 04:52:26;;;;;;;11.10;5.27;;;14.90;99.90;;;;;;5059222;28;20475;-83
2022/10/30 04:54:53;;;;;;;9.60;4.67;;;14.90;99.90;;;;;;5059900;28;20826;-82
2022/10/30 04:57:21;;;;;;;9.17;5.20;;;14.90;99.90;;;;;;5059075;28;20455;-82
2022/10/30 04:59:49;;;;;;;6.00;4.47;;;14.90;99.90;;;;;;5058496;28;20454;-83
2022/10/30 05:02:18;;;;;;;9.17;4.90;;;14.80;99.90;;;;;;5056556;28;20495;-83
2022/10/30 05:04:44;;;;;;;8.67;4.03;;;14.80;99.90;;;;;;5059581;28;20959;-82
2022/10/30 05:07:11;;;;;;;7.40;4.50;;;14.80;99.90;;;;;;5058631;28;20454;-83
2022/10/30 05:09:38;;;;;;;7.07;4.30;;;14.80;99.90;;;;;;5057780;28;20452;-82
2022/10/30 05:12:06;;;;;;;8.27;4.80;;;14.70;99.90;;;;;;5061032;28;20497;-82
2022/10/30 05:14:34;;;;;;;8.27;5.20;;;14.70;99.90;;;;;;5059876;28;20456;-82
2022/10/30 05:17:01;;;;;;;7.60;4.97;;;14.70;99.90;;;;;;5058507;28;20450;-84
2022/10/30 05:19:27;;;;;;;7.83;4.90;;;14.70;99.90;;;;;;5058799;28;20803;-84
2022/10/30 05:21:55;;;;;;;9.20;5.00;;;14.70;99.90;;;;;;5059340;28;20490;-82
2022/10/30 05:24:22;;;;;;;6.80;4.37;;;14.60;99.90;;;;;;5059844;28;20451;-82
2022/10/30 05:26:48;;;;;;;10.70;5.10;;;14.60;99.90;;;;;;5059852;28;20858;-84
2022/10/30 05:29:15;;;;;;;8.90;4.83;;;14.60;99.90;;;;;;5058081;28;20449;-84
2022/10/30 05:31:43;;;;;;;8.03;5.10;;;14.60;99.90;;;;;;5058864;28;20493;-84
2022/10/30 05:34:10;;;;;;;6.20;4.57;;;14.50;99.90;;;;;;5056795;28;20459;-84
2022/10/30 05:36:37;;;;;;;11.07;4.73;;;14.50;99.90;;;;;;5059378;28;20454;-85
2022/10/30 05:39:04;;;;;;;9.30;5.00;;;14.50;99.90;;;;;;5057793;28;20451;-82
2022/10/30 05:41:31;;;;;;;5.50;3.97;;;14.50;99.90;;;;;;5059030;28;20494;-81
2022/10/30 05:43:57;;;;;;;12.83;4.40;;;14.50;99.90;;;;;;5059222;28;20450;-84
2022/10/30 05:46:24;;;;;;;9.00;4.57;;;14.50;99.90;;;;;;5059168;28;20499;-84
2022/10/30 05:48:52;;;;;;;12.63;4.20;;;14.50;99.90;;;;;;5057306;28;20467;-84
2022/10/30 05:51:19;;;;;;;10.80;4.40;;;14.40;99.90;;;;;;5059358;28;20467;-81
2022/10/30 05:53:47;;;;;;;7.70;4.57;;;14.40;99.90;;;;;;5058435;28;20828;-83
2022/10/30 05:56:14;;;;;;;10.10;4.80;;;14.40;99.90;;;;;;5059476;28;21050;-81
2022/10/30 05:58:41;;;;;;;5.63;4.33;;;14.40;99.90;;;;;;5058572;28;20458;-83
2022/10/30 06:01:08;;;;;;;7.60;4.23;;;14.40;99.90;;;;;;5058829;28;20514;-81
2022/10/30 06:03:35;;;;;;;6.07;4.20;;;14.40;99.90;;;;;;5057965;28;20455;-83
2022/10/30 06:06:03;;;;;;;7.57;4.50;;;14.40;99.90;;;;;;5057447;28;20456;-84
2022/10/30 06:08:30;;;;;;;7.10;4.47;;;14.40;99.90;;;;;;5058057;28;20451;-82
2022/10/30 06:10:57;;;;;;;8.30;4.47;;;14.40;99.90;;;;;;5059319;28;20475;-82
2022/10/30 06:13:24;;;;;;;6.93;4.17;;;14.30;99.90;;;;;;5058570;28;20458;-82
2022/10/30 06:15:50;;;;;;;9.13;4.00;;;14.30;99.90;;;;;;5059101;28;20451;-84
2022/10/30 06:18:17;;;;;;;7.07;4.70;;;14.30;99.90;;;;;;5058558;28;20891;-83
2022/10/30 06:20:44;;;;;;;7.00;4.03;;;14.30;99.90;;;;;;5056374;28;20508;-84
2022/10/30 06:23:12;;;;;;;5.40;3.50;;;14.30;99.90;;;;;;5059463;28;20455;-83
2022/10/30 06:25:39;;;;;;;9.50;4.73;;;14.30;99.90;;;;;;5059681;28;20465;-82
2022/10/30 06:28:06;;;;;;;8.07;5.03;;;14.30;99.90;;;;;;5058267;28;20455;-82
2022/10/30 06:30:33;;;;;;;8.73;4.43;;;14.30;99.90;;;;;;5058180;28;20480;-83
2022/10/30 06:33:01;;;;;;;7.87;4.33;;;14.20;99.90;;;;;;5058109;28;20464;-83
2022/10/30 06:35:29;;;;;;;6.97;4.33;;;14.20;99.90;;;;;;5051298;28;20458;-84
2022/10/30 06:37:58;;;;;;;6.33;4.47;;;14.20;99.90;;;;;;5045891;28;20460;-83
2022/10/30 06:40:28;;;;;;;5.30;4.00;;;14.20;99.90;;;;;;5042622;28;20457;-84
2022/10/30 06:42:56;;;;;;;5.80;4.17;;;14.20;99.90;;;;;;5039629;28;20940;-81
2022/10/30 06:45:23;;;;;;;6.60;4.30;;;14.20;99.90;;;;;;5040612;28;20444;-84
2022/10/30 06:47:50;;;;;;;8.90;4.20;;;14.20;99.90;;;;;;5045740;28;20450;-83
2022/10/30 06:50:19;;;;;;;9.30;5.00;;;14.10;99.90;;;;;;5045404;28;20525;-85
2022/10/30 06:52:47;;;;;;;9.90;5.33;;;14.20;99.90;;;;;;5037548;28;20451;-86
2022/10/30 06:55:13;;;;;;;10.97;5.00;;;14.20;99.90;;;;;;5039057;28;20457;-86
2022/10/30 06:57:42;;;;;;;6.60;3.97;;;14.10;99.90;;;;;;5038529;28;20544;-88
2022/10/30 07:00:10;;;;;;;10.10;5.03;;;14.10;99.90;;;;;;5039191;28;20457;-85
2022/10/30 07:02:36;;;;;;;7.17;5.30;;;14.10;99.90;;;;;;5034163;28;20495;-87
2022/10/30 07:05:05;;;;;;;8.03;5.40;;;14.10;99.90;;;;;;5034597;28;20489;-86
2022/10/30 07:07:33;;;;;;;12.50;5.07;;;14.10;99.90;;;;;;5042071;28;20572;-87
2022/10/30 07:10:00;;;;;;;11.03;4.63;;;14.10;99.90;;;;;;5042362;28;20509;-86
2022/10/30 07:12:26;;;;;;;8.73;5.30;;;14.20;99.90;;;;;;5036834;28;20464;-85
2022/10/30 07:14:54;;;;;;;6.90;4.40;;;14.20;99.90;;;;;;5020868;28;20462;-85
2022/10/30 07:17:21;;;;;;;7.27;4.30;;;14.20;99.90;;;;;;5036343;28;20890;-84
2022/10/30 07:19:48;;;;;;;8.00;4.70;;;14.20;99.90;;;;;;5020560;28;20456;-85
2022/10/30 07:22:15;;;;;;;10.13;5.30;;;14.30;99.90;;;;;;5021889;28;20497;-86
2022/10/30 07:24:42;;;;;;;11.47;5.60;;;14.30;99.90;;;;;;5035201;28;20462;-85
2022/10/30 07:27:08;;;;;;;8.83;4.93;;;14.30;99.90;;;;;;5041329;28;20953;-83
2022/10/30 07:29:35;;;;;;;7.57;4.80;;;14.40;99.90;;;;;;5040764;28;20451;-84
2022/10/30 07:32:04;;;;;;;10.23;5.50;;;14.40;99.90;;;;;;5041178;28;20467;-85
2022/10/30 07:34:31;;;;;;;6.67;4.37;;;14.40;99.90;;;;;;5041532;28;20453;-84
2022/10/30 07:36:58;;;;;;;11.57;5.63;;;14.50;99.90;;;;;;5040002;28;20452;-86
2022/10/30 07:39:25;;;;;;;13.13;5.60;;;14.50;99.90;;;;;;5039408;28;21039;-85
2022/10/30 07:41:51;;;;;;;7.53;4.80;;;14.60;99.90;;;;;;5040153;28;20516;-84
2022/10/30 07:44:18;;;;;;;8.30;5.10;;;14.60;99.90;;;;;;5040582;28;20455;-84
2022/10/30 07:46:45;;;;;;;13.90;5.70;;;14.60;99.90;;;;;;5037070;28;20456;-86
2022/10/30 07:49:13;;;;;;;7.77;4.97;;;14.70;99.90;;;;;;5035933;28;20825;-86
2022/10/30 07:51:40;;;;;;;8.03;4.87;;;14.70;99.90;;;;;;5036004;28;20549;-86
2022/10/30 07:54:07;;;;;;;6.20;4.37;;;14.80;99.90;;;;;;5036517;28;20480;-84
2022/10/30 07:56:33;;;;;;;13.00;5.30;;;14.80;99.90;;;;;;5026083;28;20460;-86
2022/10/30 07:59:00;;;;;;;8.30;5.50;;;14.90;99.90;;;;;;5014616;28;20450;-86
2022/10/30 08:01:27;;;;;;;8.10;5.17;;;15.00;99.90;;;;;;5014368;28;20819;-84
2022/10/30 08:03:54;;;;;;;11.80;5.70;;;15.00;99.90;;;;;;5014274;28;20789;-86
2022/10/30 08:06:22;;;;;;;13.43;6.17;;;15.10;99.90;;;;;;5032583;28;20460;-86
2022/10/30 08:08:49;;;;;;;9.43;5.30;;;15.10;99.90;;;;;;5054214;28;20515;-86
2022/10/30 08:11:15;;;;;;;9.63;5.07;;;15.20;99.90;;;;;;5055017;28;20475;-86
2022/10/30 08:13:42;;;;;;;7.60;4.77;;;15.20;99.90;;;;;;5034595;28;20447;-84
2022/10/30 08:16:09;;;;;;;7.00;4.80;;;15.30;99.90;;;;;;5033797;28;20465;-86
2022/10/30 08:18:37;;;;;;;10.93;5.00;;;15.40;99.90;;;;;;5033372;28;20865;-85
2022/10/30 08:21:04;;;;;;;20.03;5.73;;;15.40;99.90;;;;;;5042694;28;20479;-85
2022/10/30 08:23:32;;;;;;;11.00;5.00;;;15.50;99.90;;;;;;5053973;28;20987;-84
2022/10/30 08:26:00;;;;;;;9.70;5.17;;;15.50;99.90;;;;;;5054355;28;20722;-85
2022/10/30 08:28:27;;;;;;;9.97;5.00;;;15.60;99.90;;;;;;5043863;28;20456;-86
2022/10/30 08:30:54;;;;;;;7.60;4.30;;;15.60;99.90;;;;;;5031172;28;20506;-86
2022/10/30 08:33:21;;;;;;;11.70;5.93;;;15.70;99.90;;;;;;5047906;28;20822;-85
2022/10/30 08:35:51;;;;;;;9.90;4.67;;;15.80;99.90;;;;;;5055066;28;20550;-87
2022/10/30 08:38:19;;;;;;;8.33;4.90;;;15.80;99.90;;;;;;5055100;28;20445;-86
2022/10/30 08:40:47;;;;;;;8.40;4.60;;;15.90;99.90;;;;;;5051404;28;20489;-85
2022/10/30 08:43:13;;;;;;;7.70;5.03;;;15.90;99.90;;;;;;5034575;28;20484;-85
2022/10/30 08:45:40;;;;;;;7.60;5.00;;;16.00;99.90;;;;;;5029393;28;20458;-85
2022/10/30 08:48:11;;;;;;;10.23;5.43;;;16.10;99.90;;;;;;5036797;28;20464;-84
2022/10/30 08:50:37;;;;;;;10.43;5.00;;;16.10;99.90;;;;;;5038287;28;20484;-85
2022/10/30 08:53:06;;;;;;;9.67;5.67;;;16.20;99.90;;;;;;5044269;28;20453;-85
2022/10/30 08:55:33;;;;;;;7.47;4.83;;;16.30;99.90;;;;;;5036333;28;20475;-86
2022/10/30 08:58:02;;;;;;;10.13;5.27;;;16.40;99.90;;;;;;5035656;28;20447;-85
2022/10/30 09:00:29;;;;;;;9.80;6.13;;;16.40;99.90;;;;;;5030806;28;20455;-85
2022/10/30 09:02:58;;;;;;;13.87;6.43;;;16.50;99.90;;;;;;5050718;28;20483;-88
2022/10/30 09:05:25;;;;;;;10.83;6.73;;;16.50;99.90;;;;;;5066191;28;20482;-84
2022/10/30 09:07:56;;;;;;;9.70;5.33;;;16.60;99.90;;;;;;5053133;28;20448;-87
2022/10/30 09:10:23;;;;;;;11.83;5.37;;;16.60;99.90;;;;;;5035803;28;20548;-86
2022/10/30 09:12:54;;;;;;;9.50;6.37;;;16.70;99.90;;;;;;5032420;28;20463;-86
2022/10/30 09:15:23;;;;;;;9.33;4.70;;;16.70;99.90;;;;;;5029813;28;20456;-86
2022/10/30 09:17:56;;;;;;;8.77;5.20;;;16.90;99.90;;;;;;5046531;28;20520;-86
2022/10/30 09:20:22;;;;;;;11.20;5.40;;;16.90;99.90;;;;;;5052726;28;20855;-87
2022/10/30 09:22:49;;;;;;;13.57;5.77;;;17.00;99.90;;;;;;5053481;28;20492;-86
2022/10/30 09:25:17;;;;;;;7.80;3.93;;;17.00;99.90;;;;;;5052113;28;20463;-86
2022/10/30 09:27:44;;;;;;;9.80;5.00;;;17.10;99.90;;;;;;5037518;28;20975;-86
2022/10/30 09:30:12;;;;;;;7.30;4.27;;;17.20;99.90;;;;;;5036687;28;20460;-85
2022/10/30 09:32:41;;;;;;;9.57;4.00;;;17.20;99.90;;;;;;5036040;28;20442;-85
2022/10/30 09:35:08;;;;;;;7.73;3.73;;;17.30;99.90;;;;;;5034608;28;20484;-85
2022/10/30 09:37:36;;;;;;;14.00;4.50;;;17.30;99.90;;;;;;5056172;28;20449;-85
2022/10/30 09:40:03;;;;;;;6.13;3.33;;;17.40;99.90;;;;;;5052319;28;20457;-87
2022/10/30 09:42:48;;;;;;;9.80;5.70;;;17.50;99.90;;;;;;5040144;28;20489;-85
2022/10/30 09:45:53;;;;;;;10.27;4.50;;;17.60;99.90;;;;;;5047683;28;20912;-86
2022/10/30 09:48:55;;;;;;;8.87;4.60;;;17.70;99.90;;;;;;4996214;28;20489;-86
2022/10/30 09:51:49;;;;;;;9.10;4.40;;;17.80;99.90;;;;;;5044419;28;20487;-87
2022/10/30 09:54:27;;;;;;;9.27;3.80;;;17.90;99.90;;;;;;5052624;28;20445;-85
2022/10/30 09:56:59;;;;;;;11.17;4.40;;;18.00;99.90;;;;;;5016081;28;20541;-86
2022/10/30 09:59:35;;;;;;;5.57;3.80;;;18.20;99.90;;;;;;5015435;28;20440;-86
2022/10/30 10:02:12;;;;;;;9.97;4.10;;;18.30;99.90;;;;;;5029098;28;20488;-86
2022/10/30 10:04:43;;;;;;;7.50;3.60;;;18.30;99.90;;;;;;5033337;28;20450;-86
2022/10/30 10:07:19;;;;;;;9.53;3.50;;;18.40;99.90;;;;;;5041951;28;20555;-86
2022/10/30 10:09:48;;;;;;;10.60;6.07;;;18.60;99.90;;;;;;5029718;28;20475;-86
2022/10/30 10:12:23;;;;;;;10.53;4.40;;;18.70;99.90;;;;;;5033221;28;20483;-86
2022/10/30 10:14:51;;;;;;;7.27;4.17;;;18.80;99.90;;;;;;5033005;28;20458;-86
2022/10/30 10:17:25;;;;;;;9.97;3.63;;;18.90;99.90;;;;;;5040643;28;20449;-86
2022/10/30 10:19:59;;;;;;;9.07;4.63;;;19.10;99.90;;;;;;5035274;28;20455;-87
2022/10/30 10:22:33;;;;;;;11.47;5.40;;;19.40;99.90;;;;;;5037510;28;20488;-86
2022/10/30 10:24:59;;;;;;;8.97;3.83;;;19.80;99.90;;;;;;5032804;28;21034;-86
2022/10/30 10:27:41;;;;;;;9.10;4.57;;;20.10;99.90;;;;;;5032404;28;20888;-86
2022/10/30 10:30:13;;;;;;;8.00;3.63;;;20.40;99.90;;;;;;5028580;28;20453;-88
2022/10/30 10:33:05;;;;;;;9.60;3.60;;;20.70;99.90;;;;;;5033482;28;20991;-88
2022/10/30 10:35:50;;;;;;;8.10;3.93;;;21.00;99.90;;;;;;5032112;28;20458;-87
2022/10/30 10:38:36;;;;;;;10.00;3.80;;;21.40;99.90;;;;;;5036676;28;21957;-87
2022/10/30 10:41:13;;;;;;;8.30;3.37;;;21.60;99.90;;;;;;5041802;28;20857;-86
2022/10/30 10:43:52;;;;;;;6.50;3.17;;;21.80;99.90;;;;;;5036230;28;20512;-85
2022/10/30 10:46:32;;;;;;;11.90;4.10;;;22.10;99.90;;;;;;5034941;28;20445;-87
2022/10/30 10:49:14;;;;;;;12.37;3.90;;;22.60;99.90;;;;;;5041402;28;20453;-87
2022/10/30 10:51:45;;;;;;;7.00;3.37;;;23.20;99.90;;;;;;5042555;28;20464;-87
2022/10/30 10:54:18;;;;;;;9.00;3.73;;;23.70;99.90;;;;;;5042741;28;20451;-86
2022/10/30 10:56:47;;;;;;;6.87;3.70;;;23.90;99.90;;;;;;5043516;28;20969;-85
2022/10/30 10:59:18;;;;;;;8.47;3.00;;;24.30;99.90;;;;;;5047588;28;20452;-86
2022/10/30 11:01:52;;;;;;;7.40;4.53;;;24.80;99.90;;;;;;5046135;28;20483;-88
2022/10/30 11:04:26;;;;;;;8.17;4.50;;;25.00;99.90;;;;;;5056194;28;20539;-86
2022/10/30 11:06:55;;;;;;;11.17;4.20;;;25.30;99.90;;;;;;5046018;28;20461;-86
2022/10/30 11:09:27;;;;;;;14.13;4.00;;;25.70;99.90;;;;;;5044820;28;20451;-86
2022/10/30 11:11:55;;;;;;;8.30;3.90;;;25.80;99.90;;;;;;5045256;28;21229;-85
2022/10/30 11:14:24;;;;;;;7.73;3.73;;;26.50;99.90;;;;;;5041846;28;20453;-86
2022/10/30 11:17:03;;;;;;;6.97;3.50;;;26.80;99.90;;;;;;5030851;28;20452;-87
2022/10/30 11:19:31;;;;;;;8.83;3.47;;;27.20;99.90;;;;;;5032819;28;20452;-88
2022/10/30 11:22:00;;;;;;;9.47;3.93;;;27.60;99.90;;;;;;5034516;28;20483;-86
2022/10/30 11:24:30;;;;;;;8.50;3.70;;;28.00;99.90;;;;;;5039412;28;20856;-87
2022/10/30 11:26:59;;;;;;;8.10;3.20;;;28.60;99.90;;;;;;5053254;28;20455;-87
2022/10/30 11:29:29;;;;;;;8.23;4.33;;;28.60;99.90;;;;;;5051122;28;20483;-87
2022/10/30 11:32:01;;;;;;;9.10;3.37;;;28.50;99.90;;;;;;5012811;28;20470;-87
2022/10/30 11:34:33;;;;;;;10.00;4.07;;;28.50;99.90;;;;;;5032609;28;20445;-86
2022/10/30 11:37:00;;;;;;;9.27;3.20;;;28.30;99.90;;;;;;5040493;28;20464;-86
2022/10/30 11:39:30;;;;;;;9.30;3.90;;;28.10;99.90;;;;;;5051038;28;20486;-87
2022/10/30 11:42:01;;;;;;;7.90;3.63;;;28.50;99.90;;;;;;5040011;28;20504;-86
2022/10/30 11:44:33;;;;;;;10.90;4.00;;;28.70;99.90;;;;;;5032932;28;20478;-87
2022/10/30 11:47:00;;;;;;;9.13;3.67;;;28.90;99.90;;;;;;5023731;28;20938;-86
2022/10/30 11:49:37;;;;;;;6.70;4.93;;;28.80;99.90;;;;;;5045539;28;20462;-86
2022/10/30 11:52:06;;;;;;;7.50;4.03;;;28.70;99.90;;;;;;5031940;28;20465;-86
2022/10/30 11:54:38;;;;;;;9.67;3.87;;;28.80;99.90;;;;;;5033574;28;20465;-87
2022/10/30 11:57:26;;;;;;;10.53;3.80;;;28.90;99.90;;;;;;5042862;28;20448;-86
2022/10/30 11:59:55;;;;;;;11.07;4.23;;;28.60;99.90;;;;;;5030791;28;20960;-85
2022/10/30 12:02:26;;;;;;;8.03;3.57;;;28.50;99.90;;;;;;5033257;28;20557;-87
2022/10/30 12:04:54;;;;;;;8.13;3.60;;;28.50;99.90;;;;;;5024344;28;20464;-86
2022/10/30 12:07:26;;;;;;;9.60;3.97;;;28.70;99.90;;;;;;5032189;28;20961;-85
2022/10/30 12:09:56;;;;;;;8.00;4.37;;;28.50;99.90;;;;;;5031882;28;20520;-86
2022/10/30 12:12:27;;;;;;;10.33;3.67;;;28.70;99.90;;;;;;5032196;28;20476;-87
2022/10/30 12:14:55;;;;;;;12.93;3.90;;;28.60;99.90;;;;;;5031176;28;20452;-86
2022/10/30 12:17:23;;;;;;;6.17;3.53;;;28.20;99.90;;;;;;5032405;28;20535;-86
2022/10/30 12:19:53;;;;;;;7.50;3.73;;;27.70;99.90;;;;;;5034432;28;20453;-85
2022/10/30 12:22:30;;;;;;;6.00;3.17;;;27.20;99.90;;;;;;5050702;28;20472;-86
2022/10/30 12:24:59;;;;;;;8.20;3.77;;;26.80;99.90;;;;;;5029466;28;20441;-85
2022/10/30 12:27:27;;;;;;;6.37;3.20;;;26.60;99.90;;;;;;5033164;28;20461;-86
2022/10/30 12:30:14;;;;;;;6.17;3.80;;;26.20;99.90;;;;;;5036688;28;20824;-86
2022/10/30 12:32:49;;;;;;;7.00;3.60;;;25.80;99.90;;;;;;5052684;28;20448;-85
2022/10/30 12:35:24;;;;;;;12.70;4.00;;;25.40;99.90;;;;;;5054225;28;20451;-86
2022/10/30 12:37:54;;;;;;;9.20;3.37;;;25.00;99.90;;;;;;5038955;28;20475;-86
2022/10/30 12:40:27;;;;;;;6.03;3.80;;;25.00;99.90;;;;;;5035144;28;20470;-86
2022/10/30 12:43:02;;;;;;;9.60;3.30;;;24.90;99.90;;;;;;5033053;28;20477;-85
2022/10/30 12:45:34;;;;;;;6.10;3.73;;;24.70;99.90;;;;;;5046990;28;20443;-86
2022/10/30 12:48:07;;;;;;;6.53;3.70;;;24.80;99.90;;;;;;5051652;28;20455;-85
2022/10/30 12:50:42;;;;;;;6.20;3.13;;;24.90;99.90;;;;;;5044147;28;20504;-86
2022/10/30 12:53:25;;;;;;;5.93;3.50;;;24.80;99.90;;;;;;5032944;28;20447;-86
2022/10/30 12:55:59;;;;;;;7.97;3.13;;;24.80;99.90;;;;;;5051370;28;20459;-87
2022/10/30 12:58:33;;;;;;;6.17;3.63;;;24.80;99.90;;;;;;5040454;28;20451;-86